DFEO weather

Zorgo Airport
Zorgo, Ganzourgou, Burkina Faso

Public forecast

Using degrees Celsius for public forecast. Weather courtesy of forecast.io.

METAR (pilot weather report)

Closest report is Ouagadougou Airport, 52.9 nm (98.0 km) W. Retrieved 2019/03/23 10:00 UTC (25 minutes ago):

DFFD 231000Z 05011KT 020V080 8000 NSC 35/M06 Q1013 NOSIG

TAF (pilot weather forecast)

Closest forecast is Ouagadougou Airport, 52.9 nm (98.0 km) W. Retrieved 2019/03/23 06:21 UTC (4 hours ago):

TAF DFFD 230500Z 2306/2412 02008KT CAVOK PROB30 TEMPO 2306/2310 4000 HZ